sensor_id;sensor_type;location;lat;lon;timestamp;temperature;humidity
45066;DHT22;30830;53.704;10.004;2023-08-17T00:02:12;16.80;99.90
45066;DHT22;30830;53.704;10.004;2023-08-17T00:04:38;16.80;99.90
45066;DHT22;30830;53.704;10.004;2023-08-17T00:07:04;16.80;99.90
45066;DHT22;30830;53.704;10.004;2023-08-17T00:09:30;16.80;99.90
45066;DHT22;30830;53.704;10.004;2023-08-17T00:11:55;16.80;99.90
45066;DHT22;30830;53.704;10.004;2023-08-17T00:14:21;16.80;99.90
45066;DHT22;30830;53.704;10.004;2023-08-17T00:16:48;16.80;99.90
45066;DHT22;30830;53.704;10.004;2023-08-17T00:19:14;16.80;99.90
45066;DHT22;30830;53.704;10.004;2023-08-17T00:21:40;16.70;99.90
45066;DHT22;30830;53.704;10.004;2023-08-17T00:24:05;16.80;99.90
45066;DHT22;30830;53.704;10.004;2023-08-17T00:26:31;16.70;99.90
45066;DHT22;30830;53.704;10.004;2023-08-17T00:28:56;16.70;99.90
45066;DHT22;30830;53.704;10.004;2023-08-17T00:31:22;16.70;99.90
45066;DHT22;30830;53.704;10.004;2023-08-17T00:33:48;16.60;99.90
45066;DHT22;30830;53.704;10.004;2023-08-17T00:36:13;16.60;99.90
45066;DHT22;30830;53.704;10.004;2023-08-17T00:38:39;16.60;99.90
45066;DHT22;30830;53.704;10.004;2023-08-17T00:41:04;16.60;99.90
45066;DHT22;30830;53.704;10.004;2023-08-17T00:43:30;16.60;99.90
45066;DHT22;30830;53.704;10.004;2023-08-17T00:45:55;16.50;99.90
45066;DHT22;30830;53.704;10.004;2023-08-17T00:48:21;16.50;99.90
45066;DHT22;30830;53.704;10.004;2023-08-17T00:50:48;16.50;99.90
45066;DHT22;30830;53.704;10.004;2023-08-17T00:53:15;16.50;99.90
45066;DHT22;30830;53.704;10.004;2023-08-17T00:55:42;16.50;99.90
45066;DHT22;30830;53.704;10.004;2023-08-17T00:58:08;16.50;99.90
45066;DHT22;30830;53.704;10.004;2023-08-17T01:00:33;16.50;99.90
45066;DHT22;30830;53.704;10.004;2023-08-17T01:02:59;16.50;99.90
45066;DHT22;30830;53.704;10.004;2023-08-17T01:05:25;16.50;99.90
45066;DHT22;30830;53.704;10.004;2023-08-17T01:07:50;16.50;99.90
45066;DHT22;30830;53.704;10.004;2023-08-17T01:10:16;16.40;99.90
45066;DHT22;30830;53.704;10.004;2023-08-17T01:13:11;16.40;99.90
45066;DHT22;30830;53.704;10.004;2023-08-17T01:15:43;16.40;99.90
45066;DHT22;30830;53.704;10.004;2023-08-17T01:18:26;16.40;99.90
45066;DHT22;30830;53.704;10.004;2023-08-17T01:20:53;16.30;99.90
45066;DHT22;30830;53.704;10.004;2023-08-17T01:23:20;16.30;99.90
45066;DHT22;30830;53.704;10.004;2023-08-17T01:25:45;16.20;99.90
45066;DHT22;30830;53.704;10.004;2023-08-17T01:28:11;16.20;99.90
45066;DHT22;30830;53.704;10.004;2023-08-17T01:31:00;16.20;99.90
45066;DHT22;30830;53.704;10.004;2023-08-17T01:33:47;16.20;99.90
45066;DHT22;30830;53.704;10.004;2023-08-17T01:36:22;16.20;99.90
45066;DHT22;30830;53.704;10.004;2023-08-17T01:38:51;16.10;99.90
45066;DHT22;30830;53.704;10.004;2023-08-17T01:41:18;16.10;99.90
45066;DHT22;30830;53.704;10.004;2023-08-17T01:43:46;16.10;99.90
45066;DHT22;30830;53.704;10.004;2023-08-17T01:46:13;16.10;99.90
45066;DHT22;30830;53.704;10.004;2023-08-17T01:48:40;16.10;99.90
45066;DHT22;30830;53.704;10.004;2023-08-17T01:51:06;16.10;99.90
45066;DHT22;30830;53.704;10.004;2023-08-17T01:53:32;16.10;99.90
45066;DHT22;30830;53.704;10.004;2023-08-17T01:55:57;16.10;99.90
45066;DHT22;30830;53.704;10.004;2023-08-17T01:58:23;16.10;99.90
45066;DHT22;30830;53.704;10.004;2023-08-17T02:00:48;16.10;99.90
45066;DHT22;30830;53.704;10.004;2023-08-17T02:03:14;16.10;99.90
45066;DHT22;30830;53.704;10.004;2023-08-17T02:05:44;16.10;99.90
45066;DHT22;30830;53.704;10.004;2023-08-17T02:08:10;16.10;99.90
45066;DHT22;30830;53.704;10.004;2023-08-17T02:10:36;16.10;99.90
45066;DHT22;30830;53.704;10.004;2023-08-17T02:13:02;16.10;99.90
45066;DHT22;30830;53.704;10.004;2023-08-17T02:15:27;16.20;99.90
45066;DHT22;30830;53.704;10.004;2023-08-17T02:17:53;16.20;99.90
45066;DHT22;30830;53.704;10.004;2023-08-17T02:20:19;16.20;99.90
45066;DHT22;30830;53.704;10.004;2023-08-17T02:22:44;16.20;99.90
45066;DHT22;30830;53.704;10.004;2023-08-17T02:25:10;16.20;99.90
45066;DHT22;30830;53.704;10.004;2023-08-17T02:27:35;16.20;99.90
45066;DHT22;30830;53.704;10.004;2023-08-17T02:30:01;16.20;99.90
45066;DHT22;30830;53.704;10.004;2023-08-17T02:32:27;16.20;99.90
45066;DHT22;30830;53.704;10.004;2023-08-17T02:34:52;16.20;99.90
45066;DHT22;30830;53.704;10.004;2023-08-17T02:37:18;16.20;99.90
45066;DHT22;30830;53.704;10.004;2023-08-17T02:39:44;16.20;99.90
45066;DHT22;30830;53.704;10.004;2023-08-17T02:42:09;16.20;99.90
45066;DHT22;30830;53.704;10.004;2023-08-17T02:44:35;16.20;99.90
45066;DHT22;30830;53.704;10.004;2023-08-17T02:47:00;16.20;99.90
45066;DHT22;30830;53.704;10.004;2023-08-17T02:49:26;16.20;99.90
45066;DHT22;30830;53.704;10.004;2023-08-17T02:51:51;16.20;99.90
45066;DHT22;30830;53.704;10.004;2023-08-17T02:54:17;16.20;99.90
45066;DHT22;30830;53.704;10.004;2023-08-17T02:56:42;16.20;99.90
45066;DHT22;30830;53.704;10.004;2023-08-17T02:59:08;16.20;99.90
45066;DHT22;30830;53.704;10.004;2023-08-17T03:01:33;16.20;99.90
45066;DHT22;30830;53.704;10.004;2023-08-17T03:03:59;16.20;99.90
45066;DHT22;30830;53.704;10.004;2023-08-17T03:06:24;16.20;99.90
45066;DHT22;30830;53.704;10.004;2023-08-17T03:08:50;16.20;99.90
45066;DHT22;30830;53.704;10.004;2023-08-17T03:11:17;16.20;99.90
45066;DHT22;30830;53.704;10.004;2023-08-17T03:13:43;16.20;99.90
45066;DHT22;30830;53.704;10.004;2023-08-17T03:16:11;16.10;99.90
45066;DHT22;30830;53.704;10.004;2023-08-17T03:18:36;16.10;99.90
45066;DHT22;30830;53.704;10.004;2023-08-17T03:21:02;16.10;99.90
45066;DHT22;30830;53.704;10.004;2023-08-17T03:23:27;16.10;99.90
45066;DHT22;30830;53.704;10.004;2023-08-17T03:25:53;16.10;99.90
45066;DHT22;30830;53.704;10.004;2023-08-17T03:28:19;16.10;99.90
45066;DHT22;30830;53.704;10.004;2023-08-17T03:30:45;16.20;99.90
45066;DHT22;30830;53.704;10.004;2023-08-17T03:33:10;16.10;99.90
45066;DHT22;30830;53.704;10.004;2023-08-17T03:35:36;16.20;99.90
45066;DHT22;30830;53.704;10.004;2023-08-17T03:38:01;16.20;99.90
45066;DHT22;30830;53.704;10.004;2023-08-17T03:40:27;16.10;99.90
45066;DHT22;30830;53.704;10.004;2023-08-17T03:42:52;16.10;99.90
45066;DHT22;30830;53.704;10.004;2023-08-17T03:45:18;16.10;99.90
45066;DHT22;30830;53.704;10.004;2023-08-17T03:47:44;16.10;99.90
45066;DHT22;30830;53.704;10.004;2023-08-17T03:50:09;16.20;99.90
45066;DHT22;30830;53.704;10.004;2023-08-17T03:52:35;16.10;99.90
45066;DHT22;30830;53.704;10.004;2023-08-17T03:55:01;16.20;99.90
45066;DHT22;30830;53.704;10.004;2023-08-17T03:57:27;16.10;99.90
45066;DHT22;30830;53.704;10.004;2023-08-17T03:59:52;16.10;99.90
45066;DHT22;30830;53.704;10.004;2023-08-17T04:02:18;16.10;99.90
45066;DHT22;30830;53.704;10.004;2023-08-17T04:04:43;16.10;99.90
45066;DHT22;30830;53.704;10.004;2023-08-17T04:07:09;16.10;99.90
45066;DHT22;30830;53.704;10.004;2023-08-17T04:09:34;16.10;99.90
45066;DHT22;30830;53.704;10.004;2023-08-17T04:12:01;16.10;99.90
45066;DHT22;30830;53.704;10.004;2023-08-17T04:14:29;16.20;99.90
45066;DHT22;30830;53.704;10.004;2023-08-17T04:16:54;16.20;99.90
45066;DHT22;30830;53.704;10.004;2023-08-17T04:19:22;16.20;99.90
45066;DHT22;30830;53.704;10.004;2023-08-17T04:21:47;16.20;99.90
45066;DHT22;30830;53.704;10.004;2023-08-17T04:24:13;16.20;99.90
45066;DHT22;30830;53.704;10.004;2023-08-17T04:26:38;16.20;99.90
45066;DHT22;30830;53.704;10.004;2023-08-17T04:29:04;16.20;99.90
45066;DHT22;30830;53.704;10.004;2023-08-17T04:31:29;16.20;99.90
45066;DHT22;30830;53.704;10.004;2023-08-17T04:33:55;16.20;99.90
45066;DHT22;30830;53.704;10.004;2023-08-17T04:36:20;16.20;99.90
45066;DHT22;30830;53.704;10.004;2023-08-17T04:38:46;16.20;99.90
45066;DHT22;30830;53.704;10.004;2023-08-17T04:41:11;16.20;99.90
45066;DHT22;30830;53.704;10.004;2023-08-17T04:43:37;16.30;99.90
45066;DHT22;30830;53.704;10.004;2023-08-17T04:46:02;16.30;99.90
45066;DHT22;30830;53.704;10.004;2023-08-17T04:48:28;16.30;99.90
45066;DHT22;30830;53.704;10.004;2023-08-17T04:50:53;16.30;99.90
45066;DHT22;30830;53.704;10.004;2023-08-17T04:53:19;16.30;99.90
45066;DHT22;30830;53.704;10.004;2023-08-17T04:55:44;16.30;99.90
45066;DHT22;30830;53.704;10.004;2023-08-17T04:58:10;16.30;99.90
45066;DHT22;30830;53.704;10.004;2023-08-17T05:00:37;16.30;99.90
45066;DHT22;30830;53.704;10.004;2023-08-17T05:03:03;16.30;99.90
45066;DHT22;30830;53.704;10.004;2023-08-17T05:05:28;16.40;99.90
45066;DHT22;30830;53.704;10.004;2023-08-17T05:07:54;16.40;99.90
45066;DHT22;30830;53.704;10.004;2023-08-17T05:10:19;16.40;99.90
45066;DHT22;30830;53.704;10.004;2023-08-17T05:12:45;16.40;99.90
45066;DHT22;30830;53.704;10.004;2023-08-17T05:15:12;16.40;99.90
45066;DHT22;30830;53.704;10.004;2023-08-17T05:17:37;16.40;99.90
45066;DHT22;30830;53.704;10.004;2023-08-17T05:20:04;16.40;99.90
45066;DHT22;30830;53.704;10.004;2023-08-17T05:22:30;16.40;99.90
45066;DHT22;30830;53.704;10.004;2023-08-17T05:24:55;16.40;99.90
45066;DHT22;30830;53.704;10.004;2023-08-17T05:27:21;16.40;99.90
45066;DHT22;30830;53.704;10.004;2023-08-17T05:29:46;16.40;99.90
45066;DHT22;30830;53.704;10.004;2023-08-17T05:32:12;16.40;99.90
45066;DHT22;30830;53.704;10.004;2023-08-17T05:34:38;16.40;99.90
45066;DHT22;30830;53.704;10.004;2023-08-17T05:37:03;16.40;99.90
45066;DHT22;30830;53.704;10.004;2023-08-17T05:39:29;16.50;99.90
45066;DHT22;30830;53.704;10.004;2023-08-17T05:41:54;16.40;99.90
45066;DHT22;30830;53.704;10.004;2023-08-17T05:44:20;16.50;99.90
45066;DHT22;30830;53.704;10.004;2023-08-17T05:46:45;16.40;99.90
45066;DHT22;30830;53.704;10.004;2023-08-17T05:49:11;16.50;99.90
45066;DHT22;30830;53.704;10.004;2023-08-17T05:51:37;16.50;99.90
45066;DHT22;30830;53.704;10.004;2023-08-17T05:54:02;16.40;99.90
45066;DHT22;30830;53.704;10.004;2023-08-17T05:56:28;16.40;99.90
45066;DHT22;30830;53.704;10.004;2023-08-17T05:58:54;16.40;99.90
45066;DHT22;30830;53.704;10.004;2023-08-17T06:01:19;16.40;99.90
45066;DHT22;30830;53.704;10.004;2023-08-17T06:03:45;16.40;99.90
45066;DHT22;30830;53.704;10.004;2023-08-17T06:06:11;16.30;99.90
45066;DHT22;30830;53.704;10.004;2023-08-17T06:08:36;16.40;99.90
45066;DHT22;30830;53.704;10.004;2023-08-17T06:11:02;16.30;99.90
45066;DHT22;30830;53.704;10.004;2023-08-17T06:13:27;16.20;99.90
45066;DHT22;30830;53.704;10.004;2023-08-17T06:15:53;16.20;99.90
45066;DHT22;30830;53.704;10.004;2023-08-17T06:18:21;16.30;99.90
45066;DHT22;30830;53.704;10.004;2023-08-17T06:20:46;16.30;99.90
45066;DHT22;30830;53.704;10.004;2023-08-17T06:23:13;16.30;99.90
45066;DHT22;30830;53.704;10.004;2023-08-17T06:25:39;16.20;99.90
45066;DHT22;30830;53.704;10.004;2023-08-17T06:28:05;16.30;99.90
45066;DHT22;30830;53.704;10.004;2023-08-17T06:30:31;16.30;99.90
45066;DHT22;30830;53.704;10.004;2023-08-17T06:32:56;16.20;99.90
45066;DHT22;30830;53.704;10.004;2023-08-17T06:35:22;16.20;99.90
45066;DHT22;30830;53.704;10.004;2023-08-17T06:37:48;16.30;99.90
45066;DHT22;30830;53.704;10.004;2023-08-17T06:40:13;16.20;99.90
45066;DHT22;30830;53.704;10.004;2023-08-17T06:42:39;16.30;99.90
45066;DHT22;30830;53.704;10.004;2023-08-17T06:45:05;16.20;99.90
45066;DHT22;30830;53.704;10.004;2023-08-17T06:47:31;16.20;99.90
45066;DHT22;30830;53.704;10.004;2023-08-17T06:49:56;16.20;99.90
45066;DHT22;30830;53.704;10.004;2023-08-17T06:52:24;16.20;99.90
45066;DHT22;30830;53.704;10.004;2023-08-17T06:54:50;16.20;99.90
45066;DHT22;30830;53.704;10.004;2023-08-17T06:57:16;16.20;99.90
45066;DHT22;30830;53.704;10.004;2023-08-17T06:59:41;16.20;99.90
45066;DHT22;30830;53.704;10.004;2023-08-17T07:02:07;16.20;99.90
45066;DHT22;30830;53.704;10.004;2023-08-17T07:04:32;16.10;99.90
45066;DHT22;30830;53.704;10.004;2023-08-17T07:06:58;16.20;99.90
45066;DHT22;30830;53.704;10.004;2023-08-17T07:09:24;16.20;99.90
45066;DHT22;30830;53.704;10.004;2023-08-17T07:11:50;16.10;99.90
45066;DHT22;30830;53.704;10.004;2023-08-17T07:14:15;16.10;99.90
45066;DHT22;30830;53.704;10.004;2023-08-17T07:16:41;16.10;99.90
45066;DHT22;30830;53.704;10.004;2023-08-17T07:19:07;16.10;99.90
45066;DHT22;30830;53.704;10.004;2023-08-17T07:21:32;16.10;99.90
45066;DHT22;30830;53.704;10.004;2023-08-17T07:23:58;16.10;99.90
45066;DHT22;30830;53.704;10.004;2023-08-17T07:26:23;16.10;99.90
45066;DHT22;30830;53.704;10.004;2023-08-17T07:28:49;16.10;99.90
45066;DHT22;30830;53.704;10.004;2023-08-17T07:31:15;16.10;99.90
45066;DHT22;30830;53.704;10.004;2023-08-17T07:33:41;16.10;99.90
45066;DHT22;30830;53.704;10.004;2023-08-17T07:36:06;16.10;99.90
45066;DHT22;30830;53.704;10.004;2023-08-17T07:38:32;16.20;99.90
45066;DHT22;30830;53.704;10.004;2023-08-17T07:40:58;16.20;99.90
45066;DHT22;30830;53.704;10.004;2023-08-17T07:43:24;16.20;99.90
45066;DHT22;30830;53.704;10.004;2023-08-17T07:45:54;16.20;99.90
45066;DHT22;30830;53.704;10.004;2023-08-17T07:48:20;16.20;99.90
45066;DHT22;30830;53.704;10.004;2023-08-17T07:50:51;16.20;99.90
45066;DHT22;30830;53.704;10.004;2023-08-17T07:53:18;16.20;99.90
45066;DHT22;30830;53.704;10.004;2023-08-17T07:55:44;16.20;99.90
45066;DHT22;30830;53.704;10.004;2023-08-17T07:58:09;16.20;99.90
45066;DHT22;30830;53.704;10.004;2023-08-17T08:00:35;16.20;99.90
45066;DHT22;30830;53.704;10.004;2023-08-17T08:03:01;16.20;99.90
45066;DHT22;30830;53.704;10.004;2023-08-17T08:05:26;16.20;99.90
45066;DHT22;30830;53.704;10.004;2023-08-17T08:07:53;16.30;99.90
45066;DHT22;30830;53.704;10.004;2023-08-17T08:10:18;16.30;99.90
45066;DHT22;30830;53.704;10.004;2023-08-17T08:12:44;16.30;99.90
45066;DHT22;30830;53.704;10.004;2023-08-17T08:15:10;16.30;99.90
45066;DHT22;30830;53.704;10.004;2023-08-17T08:17:35;16.30;99.90
45066;DHT22;30830;53.704;10.004;2023-08-17T08:20:01;16.30;99.90
45066;DHT22;30830;53.704;10.004;2023-08-17T08:22:27;16.30;99.90
45066;DHT22;30830;53.704;10.004;2023-08-17T08:24:52;16.30;99.90
45066;DHT22;30830;53.704;10.004;2023-08-17T08:27:18;16.30;99.90
45066;DHT22;30830;53.704;10.004;2023-08-17T08:29:44;16.30;99.90
45066;DHT22;30830;53.704;10.004;2023-08-17T08:32:10;16.40;99.90
45066;DHT22;30830;53.704;10.004;2023-08-17T08:34:35;16.40;99.90
45066;DHT22;30830;53.704;10.004;2023-08-17T08:37:01;16.40;99.90
45066;DHT22;30830;53.704;10.004;2023-08-17T08:39:27;16.40;99.90
45066;DHT22;30830;53.704;10.004;2023-08-17T08:41:53;16.40;99.90
45066;DHT22;30830;53.704;10.004;2023-08-17T08:44:19;16.50;99.90
45066;DHT22;30830;53.704;10.004;2023-08-17T08:46:45;16.50;99.90
45066;DHT22;30830;53.704;10.004;2023-08-17T08:49:11;16.50;99.90
45066;DHT22;30830;53.704;10.004;2023-08-17T08:51:42;16.50;99.90
45066;DHT22;30830;53.704;10.004;2023-08-17T08:54:12;16.50;99.90
45066;DHT22;30830;53.704;10.004;2023-08-17T08:56:39;16.50;99.90
45066;DHT22;30830;53.704;10.004;2023-08-17T08:59:08;16.50;99.90
45066;DHT22;30830;53.704;10.004;2023-08-17T09:01:35;16.60;99.90
45066;DHT22;30830;53.704;10.004;2023-08-17T09:04:00;16.60;99.90
45066;DHT22;30830;53.704;10.004;2023-08-17T09:06:29;16.60;99.90
45066;DHT22;30830;53.704;10.004;2023-08-17T09:08:56;16.60;99.90
45066;DHT22;30830;53.704;10.004;2023-08-17T09:11:22;16.60;99.90
45066;DHT22;30830;53.704;10.004;2023-08-17T09:13:47;16.70;99.90
45066;DHT22;30830;53.704;10.004;2023-08-17T09:16:13;16.70;99.90
45066;DHT22;30830;53.704;10.004;2023-08-17T09:18:39;16.70;99.90
45066;DHT22;30830;53.704;10.004;2023-08-17T09:21:05;16.70;99.90
45066;DHT22;30830;53.704;10.004;2023-08-17T09:23:30;16.70;99.90
45066;DHT22;30830;53.704;10.004;2023-08-17T09:25:56;16.70;99.90
45066;DHT22;30830;53.704;10.004;2023-08-17T09:28:23;16.70;99.90
45066;DHT22;30830;53.704;10.004;2023-08-17T09:30:54;16.80;99.90
45066;DHT22;30830;53.704;10.004;2023-08-17T09:33:28;16.80;99.90
45066;DHT22;30830;53.704;10.004;2023-08-17T09:35:55;16.80;99.90
45066;DHT22;30830;53.704;10.004;2023-08-17T09:38:20;16.80;99.90
45066;DHT22;30830;53.704;10.004;2023-08-17T09:40:47;16.90;99.90
45066;DHT22;30830;53.704;10.004;2023-08-17T09:43:16;16.90;99.90
45066;DHT22;30830;53.704;10.004;2023-08-17T09:45:46;16.90;99.90
45066;DHT22;30830;53.704;10.004;2023-08-17T09:48:15;16.80;99.90
45066;DHT22;30830;53.704;10.004;2023-08-17T09:50:43;16.80;99.90
45066;DHT22;30830;53.704;10.004;2023-08-17T09:53:16;16.80;99.90
45066;DHT22;30830;53.704;10.004;2023-08-17T09:55:43;16.70;99.90
45066;DHT22;30830;53.704;10.004;2023-08-17T09:58:09;16.80;99.90
45066;DHT22;30830;53.704;10.004;2023-08-17T10:00:35;16.80;99.90
45066;DHT22;30830;53.704;10.004;2023-08-17T10:03:04;16.80;99.90
45066;DHT22;30830;53.704;10.004;2023-08-17T10:05:35;16.90;99.90
45066;DHT22;30830;53.704;10.004;2023-08-17T10:08:03;16.90;99.90
45066;DHT22;30830;53.704;10.004;2023-08-17T10:10:32;16.90;99.90
45066;DHT22;30830;53.704;10.004;2023-08-17T10:13:15;16.90;99.90
45066;DHT22;30830;53.704;10.004;2023-08-17T10:15:51;16.90;99.90
45066;DHT22;30830;53.704;10.004;2023-08-17T10:21:21;17.00;99.90
45066;DHT22;30830;53.704;10.004;2023-08-17T10:23:48;16.90;99.90
45066;DHT22;30830;53.704;10.004;2023-08-17T10:26:14;16.90;99.90
45066;DHT22;30830;53.704;10.004;2023-08-17T10:28:41;17.00;99.90
45066;DHT22;30830;53.704;10.004;2023-08-17T10:31:07;16.90;99.90
45066;DHT22;30830;53.704;10.004;2023-08-17T10:33:33;16.90;99.90
45066;DHT22;30830;53.704;10.004;2023-08-17T10:36:00;16.90;99.90
45066;DHT22;30830;53.704;10.004;2023-08-17T10:38:26;16.90;99.90
45066;DHT22;30830;53.704;10.004;2023-08-17T10:41:09;17.00;99.90
45066;DHT22;30830;53.704;10.004;2023-08-17T10:43:43;17.00;99.90
45066;DHT22;30830;53.704;10.004;2023-08-17T10:46:18;17.00;99.90
45066;DHT22;30830;53.704;10.004;2023-08-17T10:48:44;17.10;99.90
45066;DHT22;30830;53.704;10.004;2023-08-17T10:51:09;17.00;99.90
45066;DHT22;30830;53.704;10.004;2023-08-17T10:53:39;17.10;99.90
45066;DHT22;30830;53.704;10.004;2023-08-17T10:56:11;17.10;99.90
45066;DHT22;30830;53.704;10.004;2023-08-17T10:58:37;17.20;99.90
45066;DHT22;30830;53.704;10.004;2023-08-17T11:01:03;17.20;99.90
45066;DHT22;30830;53.704;10.004;2023-08-17T11:03:28;17.20;99.90
45066;DHT22;30830;53.704;10.004;2023-08-17T11:05:55;17.30;99.90
45066;DHT22;30830;53.704;10.004;2023-08-17T11:08:54;17.30;99.90
45066;DHT22;30830;53.704;10.004;2023-08-17T11:11:21;17.30;99.90
45066;DHT22;30830;53.704;10.004;2023-08-17T11:13:48;17.40;99.90
45066;DHT22;30830;53.704;10.004;2023-08-17T11:16:15;17.40;99.90
45066;DHT22;30830;53.704;10.004;2023-08-17T11:18:42;17.40;99.90
45066;DHT22;30830;53.704;10.004;2023-08-17T11:21:08;17.50;99.90
45066;DHT22;30830;53.704;10.004;2023-08-17T11:23:36;17.50;99.90
45066;DHT22;30830;53.704;10.004;2023-08-17T11:26:02;17.50;99.90
45066;DHT22;30830;53.704;10.004;2023-08-17T11:28:30;17.40;99.90
45066;DHT22;30830;53.704;10.004;2023-08-17T11:31:02;17.50;99.90
45066;DHT22;30830;53.704;10.004;2023-08-17T11:33:29;17.50;99.90
45066;DHT22;30830;53.704;10.004;2023-08-17T11:35:56;17.60;99.90
45066;DHT22;30830;53.704;10.004;2023-08-17T11:38:22;17.60;99.90
45066;DHT22;30830;53.704;10.004;2023-08-17T11:40:51;17.60;99.90
45066;DHT22;30830;53.704;10.004;2023-08-17T11:43:17;17.60;99.90
45066;DHT22;30830;53.704;10.004;2023-08-17T11:45:43;17.60;99.90
45066;DHT22;30830;53.704;10.004;2023-08-17T11:48:08;17.60;99.90
45066;DHT22;30830;53.704;10.004;2023-08-17T11:50:35;17.60;99.90
45066;DHT22;30830;53.704;10.004;2023-08-17T11:53:00;17.60;99.90
45066;DHT22;30830;53.704;10.004;2023-08-17T11:55:26;17.60;99.90
45066;DHT22;30830;53.704;10.004;2023-08-17T11:57:52;17.50;99.90
45066;DHT22;30830;53.704;10.004;2023-08-17T12:00:19;17.60;99.90
45066;DHT22;30830;53.704;10.004;2023-08-17T12:02:49;17.60;99.90
45066;DHT22;30830;53.704;10.004;2023-08-17T12:05:25;17.50;99.90
45066;DHT22;30830;53.704;10.004;2023-08-17T12:07:53;17.40;99.90
45066;DHT22;30830;53.704;10.004;2023-08-17T12:10:19;17.30;99.90
45066;DHT22;30830;53.704;10.004;2023-08-17T12:12:47;17.30;99.90
45066;DHT22;30830;53.704;10.004;2023-08-17T12:15:13;17.20;99.90
45066;DHT22;30830;53.704;10.004;2023-08-17T12:17:46;17.30;99.90
45066;DHT22;30830;53.704;10.004;2023-08-17T12:20:21;17.30;99.90
45066;DHT22;30830;53.704;10.004;2023-08-17T12:22:47;17.30;99.90
45066;DHT22;30830;53.704;10.004;2023-08-17T12:25:13;17.40;99.90
45066;DHT22;30830;53.704;10.004;2023-08-17T12:27:41;17.40;99.90
45066;DHT22;30830;53.704;10.004;2023-08-17T12:30:24;17.40;99.90
45066;DHT22;30830;53.704;10.004;2023-08-17T12:32:49;17.40;99.90
45066;DHT22;30830;53.704;10.004;2023-08-17T12:35:15;17.30;99.90
45066;DHT22;30830;53.704;10.004;2023-08-17T12:37:41;17.30;99.90
45066;DHT22;30830;53.704;10.004;2023-08-17T12:40:07;17.40;99.90
45066;DHT22;30830;53.704;10.004;2023-08-17T12:42:33;17.30;99.90
45066;DHT22;30830;53.704;10.004;2023-08-17T12:44:59;17.30;99.90
45066;DHT22;30830;53.704;10.004;2023-08-17T12:47:24;17.40;99.90
45066;DHT22;30830;53.704;10.004;2023-08-17T12:49:50;17.40;99.90
45066;DHT22;30830;53.704;10.004;2023-08-17T12:52:15;17.30;99.90
45066;DHT22;30830;53.704;10.004;2023-08-17T12:54:41;17.30;99.90
45066;DHT22;30830;53.704;10.004;2023-08-17T12:57:06;17.30;99.90
45066;DHT22;30830;53.704;10.004;2023-08-17T12:59:32;17.40;99.90
45066;DHT22;30830;53.704;10.004;2023-08-17T13:01:58;17.40;99.90
45066;DHT22;30830;53.704;10.004;2023-08-17T13:04:23;17.50;99.90
45066;DHT22;30830;53.704;10.004;2023-08-17T13:06:49;17.50;99.90
45066;DHT22;30830;53.704;10.004;2023-08-17T13:09:16;17.60;99.90
45066;DHT22;30830;53.704;10.004;2023-08-17T13:11:44;17.60;99.90
45066;DHT22;30830;53.704;10.004;2023-08-17T13:14:10;17.70;99.90
45066;DHT22;30830;53.704;10.004;2023-08-17T13:16:35;17.70;99.90
45066;DHT22;30830;53.704;10.004;2023-08-17T13:19:01;17.70;99.90
45066;DHT22;30830;53.704;10.004;2023-08-17T13:21:27;17.80;99.90
45066;DHT22;30830;53.704;10.004;2023-08-17T13:23:52;17.80;99.90
45066;DHT22;30830;53.704;10.004;2023-08-17T13:26:18;17.80;99.90
45066;DHT22;30830;53.704;10.004;2023-08-17T13:28:43;17.80;99.90
45066;DHT22;30830;53.704;10.004;2023-08-17T13:31:09;17.70;99.90
45066;DHT22;30830;53.704;10.004;2023-08-17T13:33:34;17.70;99.90
45066;DHT22;30830;53.704;10.004;2023-08-17T13:36:00;17.70;99.90
45066;DHT22;30830;53.704;10.004;2023-08-17T13:38:26;17.70;99.90
45066;DHT22;30830;53.704;10.004;2023-08-17T13:40:51;17.70;99.90
45066;DHT22;30830;53.704;10.004;2023-08-17T13:43:17;17.50;99.90
45066;DHT22;30830;53.704;10.004;2023-08-17T13:45:42;17.40;99.90
45066;DHT22;30830;53.704;10.004;2023-08-17T13:48:08;17.30;99.90
45066;DHT22;30830;53.704;10.004;2023-08-17T13:50:36;17.20;99.90
45066;DHT22;30830;53.704;10.004;2023-08-17T13:53:02;17.10;99.90
45066;DHT22;30830;53.704;10.004;2023-08-17T13:55:28;16.90;99.90
45066;DHT22;30830;53.704;10.004;2023-08-17T13:57:54;16.70;99.90
45066;DHT22;30830;53.704;10.004;2023-08-17T14:00:21;16.60;99.90
45066;DHT22;30830;53.704;10.004;2023-08-17T14:02:47;16.50;99.90
45066;DHT22;30830;53.704;10.004;2023-08-17T14:05:13;16.50;99.90
45066;DHT22;30830;53.704;10.004;2023-08-17T14:07:38;16.40;99.90
45066;DHT22;30830;53.704;10.004;2023-08-17T14:10:04;16.20;99.90
45066;DHT22;30830;53.704;10.004;2023-08-17T14:12:30;16.20;99.90
45066;DHT22;30830;53.704;10.004;2023-08-17T14:14:55;16.10;99.90
45066;DHT22;30830;53.704;10.004;2023-08-17T14:17:21;16.00;99.90
45066;DHT22;30830;53.704;10.004;2023-08-17T14:19:47;15.90;99.90
45066;DHT22;30830;53.704;10.004;2023-08-17T14:22:12;15.90;99.90
45066;DHT22;30830;53.704;10.004;2023-08-17T14:24:38;15.80;99.90
45066;DHT22;30830;53.704;10.004;2023-08-17T14:27:03;15.90;99.90
45066;DHT22;30830;53.704;10.004;2023-08-17T14:29:29;15.90;99.90
45066;DHT22;30830;53.704;10.004;2023-08-17T14:31:54;15.90;99.90
45066;DHT22;30830;53.704;10.004;2023-08-17T14:34:20;15.90;99.90
45066;DHT22;30830;53.704;10.004;2023-08-17T14:36:46;15.90;99.90
45066;DHT22;30830;53.704;10.004;2023-08-17T14:39:12;15.90;99.90
45066;DHT22;30830;53.704;10.004;2023-08-17T14:41:38;15.90;99.90
45066;DHT22;30830;53.704;10.004;2023-08-17T14:44:04;15.80;99.90
45066;DHT22;30830;53.704;10.004;2023-08-17T14:46:30;15.80;99.90
45066;DHT22;30830;53.704;10.004;2023-08-17T14:48:55;15.70;99.90
45066;DHT22;30830;53.704;10.004;2023-08-17T14:51:21;15.70;99.90
45066;DHT22;30830;53.704;10.004;2023-08-17T14:53:46;15.70;99.90
45066;DHT22;30830;53.704;10.004;2023-08-17T14:56:12;15.80;99.90
45066;DHT22;30830;53.704;10.004;2023-08-17T14:58:37;15.80;99.90
45066;DHT22;30830;53.704;10.004;2023-08-17T15:01:03;15.80;99.90
45066;DHT22;30830;53.704;10.004;2023-08-17T15:03:29;15.80;99.90
45066;DHT22;30830;53.704;10.004;2023-08-17T15:05:54;15.80;99.90
45066;DHT22;30830;53.704;10.004;2023-08-17T15:08:20;15.80;99.90
45066;DHT22;30830;53.704;10.004;2023-08-17T15:10:49;15.80;99.90
45066;DHT22;30830;53.704;10.004;2023-08-17T15:13:15;15.80;99.90
45066;DHT22;30830;53.704;10.004;2023-08-17T15:15:41;15.80;99.90